createdAt,value
2022-09-26T00:01:43.585Z,14.50
2022-09-26T00:04:15.768Z,14.40
2022-09-26T00:06:43.932Z,14.40
2022-09-26T00:09:12.731Z,14.40
2022-09-26T00:11:41.550Z,14.40
2022-09-26T00:14:15.041Z,14.40
2022-09-26T00:16:43.312Z,14.40
2022-09-26T00:19:11.642Z,14.30
2022-09-26T00:21:40.232Z,14.20
2022-09-26T00:24:08.579Z,14.30
2022-09-26T00:26:38.206Z,14.00
2022-09-26T00:29:08.440Z,13.90
2022-09-26T00:31:41.224Z,14.00
2022-09-26T00:34:11.321Z,14.00
2022-09-26T00:36:39.623Z,14.00
2022-09-26T00:39:09.159Z,14.20
2022-09-26T00:41:41.532Z,14.20
2022-09-26T00:44:42.709Z,14.30
2022-09-26T00:47:33.884Z,14.40
2022-09-26T00:50:05.575Z,14.50
2022-09-26T00:52:37.730Z,14.40
2022-09-26T00:55:14.093Z,14.10
2022-09-26T00:57:46.611Z,14.00
2022-09-26T01:00:16.315Z,13.90
2022-09-26T01:02:48.091Z,13.80
2022-09-26T01:05:19.014Z,14.00
2022-09-26T01:07:47.859Z,14.10
2022-09-26T01:10:16.514Z,13.90
2022-09-26T01:12:44.896Z,13.90
2022-09-26T01:15:14.756Z,14.10
2022-09-26T01:17:46.775Z,14.00
2022-09-26T01:20:33.572Z,14.00
2022-09-26T01:23:37.987Z,14.00
2022-09-26T01:26:34.726Z,14.10
2022-09-26T01:29:43.077Z,14.20
2022-09-26T01:32:41.113Z,14.30
2022-09-26T01:35:16.107Z,14.40
2022-09-26T01:37:51.234Z,14.30
2022-09-26T01:40:27.408Z,14.40
2022-09-26T01:43:06.791Z,14.40
2022-09-26T01:45:45.264Z,14.50
2022-09-26T01:48:20.843Z,14.40
2022-09-26T01:50:54.501Z,14.50
2022-09-26T01:53:27.007Z,14.40
2022-09-26T01:56:07.721Z,14.30
2022-09-26T01:58:41.217Z,14.30
2022-09-26T02:01:13.688Z,14.20
2022-09-26T02:03:48.160Z,13.90
2022-09-26T02:06:22.115Z,13.80
2022-09-26T02:08:55.418Z,13.50
2022-09-26T02:11:25.615Z,13.40
2022-09-26T02:14:04.173Z,13.30
2022-09-26T02:16:38.471Z,13.10
2022-09-26T02:19:16.329Z,13.20
2022-09-26T02:21:45.258Z,13.10
2022-09-26T02:24:13.625Z,13.10
2022-09-26T02:26:43.222Z,13.20
2022-09-26T02:29:13.152Z,13.30
2022-09-26T02:31:48.558Z,13.20
2022-09-26T02:34:18.556Z,13.40
2022-09-26T02:36:46.750Z,13.40
2022-09-26T02:39:15.496Z,13.40
2022-09-26T02:41:52.336Z,13.40
2022-09-26T02:44:35.079Z,13.40
2022-09-26T02:47:27.644Z,13.40
2022-09-26T02:50:14.427Z,13.50
2022-09-26T02:52:52.394Z,13.50
2022-09-26T02:55:35.888Z,13.50
2022-09-26T02:58:10.578Z,13.40
2022-09-26T03:00:52.369Z,13.50
2022-09-26T03:03:26.913Z,13.60
2022-09-26T03:05:59.737Z,13.40
2022-09-26T03:08:30.272Z,13.20
2022-09-26T03:11:05.071Z,13.00
2022-09-26T03:13:36.519Z,13.00
2022-09-26T03:16:05.247Z,13.10
2022-09-26T03:18:39.683Z,13.20
2022-09-26T03:21:10.358Z,13.10
2022-09-26T03:23:39.601Z,13.10
2022-09-26T03:26:12.472Z,13.10
2022-09-26T03:28:50.265Z,13.10
2022-09-26T03:31:22.269Z,13.10
2022-09-26T03:34:00.377Z,13.00
2022-09-26T03:36:30.347Z,13.20
2022-09-26T03:38:58.568Z,13.20
2022-09-26T03:41:47.428Z,13.10
2022-09-26T03:44:27.362Z,13.10
2022-09-26T03:47:14.416Z,13.20
2022-09-26T03:49:44.994Z,13.10
2022-09-26T03:52:18.274Z,13.10
2022-09-26T03:54:46.882Z,13.00
2022-09-26T03:57:17.792Z,13.00
2022-09-26T03:59:51.359Z,13.00
2022-09-26T04:02:21.012Z,13.10
2022-09-26T04:04:56.111Z,13.10
2022-09-26T04:07:27.634Z,13.20
2022-09-26T04:09:58.954Z,13.30
2022-09-26T04:12:29.098Z,13.40
2022-09-26T04:14:57.300Z,13.40
2022-09-26T04:17:25.426Z,13.40
2022-09-26T04:19:53.635Z,13.20
2022-09-26T04:22:21.863Z,13.20
2022-09-26T04:24:51.737Z,13.00
2022-09-26T04:27:20.076Z,12.90
2022-09-26T04:29:48.429Z,12.90
2022-09-26T04:32:37.487Z,13.00
2022-09-26T04:35:25.394Z,13.00
2022-09-26T04:37:53.623Z,13.10
2022-09-26T04:40:23.447Z,13.20
2022-09-26T04:43:02.190Z,13.30
2022-09-26T04:45:30.166Z,13.20
2022-09-26T04:47:58.480Z,13.30
2022-09-26T04:50:26.946Z,13.20
2022-09-26T04:53:09.801Z,13.00
2022-09-26T04:55:46.619Z,13.00
2022-09-26T04:58:16.335Z,13.30
2022-09-26T05:00:45.391Z,13.10
2022-09-26T05:03:15.436Z,13.30
2022-09-26T05:05:45.106Z,13.10
2022-09-26T05:08:14.050Z,12.70
2022-09-26T05:10:42.371Z,12.50
2022-09-26T05:13:12.116Z,12.50
2022-09-26T05:15:41.643Z,12.50
2022-09-26T05:18:11.486Z,12.60
2022-09-26T05:20:40.876Z,12.70
2022-09-26T05:23:10.449Z,12.60
2022-09-26T05:25:57.896Z,12.50
2022-09-26T05:28:28.267Z,12.60
2022-09-26T05:30:56.885Z,12.50
2022-09-26T05:33:24.922Z,12.50
2022-09-26T05:35:54.760Z,12.60
2022-09-26T05:38:23.373Z,12.60
2022-09-26T05:40:56.650Z,12.70
2022-09-26T05:43:27.597Z,12.60
2022-09-26T05:46:00.922Z,12.60
2022-09-26T05:48:36.397Z,12.60
2022-09-26T05:51:09.913Z,12.70
2022-09-26T05:53:39.610Z,12.70
2022-09-26T05:56:09.098Z,12.80
2022-09-26T05:58:58.660Z,12.80
2022-09-26T06:01:46.874Z,12.80
2022-09-26T06:04:29.666Z,12.80
2022-09-26T06:07:16.176Z,12.70
2022-09-26T06:09:44.784Z,12.60
2022-09-26T06:12:20.204Z,12.60
2022-09-26T06:14:49.847Z,12.80
2022-09-26T06:17:17.902Z,12.70
2022-09-26T06:19:45.964Z,12.90
2022-09-26T06:22:13.963Z,12.80
2022-09-26T06:24:41.907Z,13.00
2022-09-26T06:27:13.343Z,13.00
2022-09-26T06:29:41.350Z,13.10
2022-09-26T06:32:10.861Z,13.10
2022-09-26T06:34:45.069Z,13.20
2022-09-26T06:37:37.149Z,13.20
2022-09-26T06:40:05.720Z,13.10
2022-09-26T06:42:37.963Z,13.00
2022-09-26T06:45:26.595Z,12.90
2022-09-26T06:48:24.574Z,13.00
2022-09-26T06:51:02.256Z,13.10
2022-09-26T06:53:31.868Z,12.90
2022-09-26T06:56:00.958Z,13.00
2022-09-26T06:58:29.504Z,13.20
2022-09-26T07:01:06.691Z,13.50
2022-09-26T07:04:17.204Z,13.80
2022-09-26T07:06:52.420Z,14.00
2022-09-26T07:09:20.712Z,14.10
2022-09-26T07:12:18.974Z,14.20
2022-09-26T07:14:51.431Z,14.10
2022-09-26T07:17:27.271Z,14.10
2022-09-26T07:20:08.209Z,14.40
2022-09-26T07:22:54.907Z,14.50
2022-09-26T07:25:23.249Z,14.60
2022-09-26T07:27:53.104Z,14.70
2022-09-26T07:30:26.466Z,14.80
2022-09-26T07:33:03.150Z,14.80
2022-09-26T07:35:39.541Z,14.90
2022-09-26T07:38:07.541Z,15.20
2022-09-26T07:40:35.706Z,15.10
2022-09-26T07:43:19.035Z,15.10
2022-09-26T07:46:09.796Z,15.20
2022-09-26T07:48:57.819Z,15.30
2022-09-26T07:51:46.197Z,15.50
2022-09-26T07:54:20.036Z,15.80
2022-09-26T07:56:57.251Z,15.60
2022-09-26T07:59:51.412Z,15.50
2022-09-26T08:02:38.459Z,15.50
2022-09-26T08:05:08.063Z,15.50
2022-09-26T08:07:38.167Z,15.40
2022-09-26T08:10:19.911Z,15.40
2022-09-26T08:13:23.456Z,15.30
2022-09-26T08:16:10.184Z,15.30
2022-09-26T08:18:42.439Z,15.50
2022-09-26T08:21:10.474Z,15.60
2022-09-26T08:23:40.896Z,15.60
2022-09-26T08:26:44.477Z,15.50
2022-09-26T08:29:34.988Z,15.60
2022-09-26T08:32:04.356Z,15.60
2022-09-26T08:34:35.305Z,15.80
2022-09-26T08:37:26.195Z,16.00
2022-09-26T08:40:18.735Z,16.00
2022-09-26T08:43:13.575Z,16.20
2022-09-26T08:46:25.836Z,16.30
2022-09-26T08:49:40.138Z,16.50
2022-09-26T08:52:24.753Z,16.50
2022-09-26T08:54:56.097Z,16.50
2022-09-26T08:57:34.844Z,16.60
2022-09-26T09:00:19.047Z,16.70
2022-09-26T09:03:03.295Z,16.80
2022-09-26T09:05:34.315Z,17.00
2022-09-26T09:08:10.149Z,16.90
2022-09-26T09:10:52.956Z,17.00
2022-09-26T09:13:41.232Z,17.30
2022-09-26T09:16:58.358Z,17.20
2022-09-26T09:19:57.067Z,17.10
2022-09-26T09:23:00.248Z,17.00
2022-09-26T09:25:33.896Z,16.80
2022-09-26T09:28:14.187Z,16.60
2022-09-26T09:30:49.333Z,16.80
2022-09-26T09:33:33.475Z,17.00
2022-09-26T09:36:21.943Z,17.20
2022-09-26T09:39:30.044Z,17.10
2022-09-26T09:42:07.804Z,16.90
2022-09-26T09:44:46.892Z,16.90
2022-09-26T09:47:19.288Z,16.70
2022-09-26T09:49:50.185Z,16.50
2022-09-26T09:52:32.386Z,16.40
2022-09-26T09:55:13.177Z,16.30
2022-09-26T09:58:00.214Z,16.30
2022-09-26T10:00:29.951Z,16.20
2022-09-26T10:03:26.112Z,16.10
2022-09-26T10:05:58.750Z,16.20
2022-09-26T10:08:42.624Z,16.50
2022-09-26T10:11:45.512Z,16.80
2022-09-26T10:14:28.792Z,17.10
2022-09-26T10:17:20.471Z,16.90
2022-09-26T10:20:40.797Z,16.80
2022-09-26T10:23:24.595Z,16.90
2022-09-26T10:25:59.939Z,16.80
2022-09-26T10:28:32.557Z,16.90
2022-09-26T10:31:05.209Z,16.90
2022-09-26T10:33:45.641Z,16.60
2022-09-26T10:36:22.269Z,16.50
2022-09-26T10:39:17.259Z,16.30
2022-09-26T10:41:50.879Z,16.20
2022-09-26T10:44:28.009Z,15.90
2022-09-26T10:47:13.578Z,15.70
2022-09-26T10:50:06.845Z,15.70
2022-09-26T10:52:58.633Z,15.90
2022-09-26T10:55:34.557Z,16.10
2022-09-26T10:58:13.517Z,16.20
2022-09-26T11:00:44.906Z,16.00
2022-09-26T11:03:23.744Z,16.10
2022-09-26T11:06:24.239Z,16.30
2022-09-26T11:09:02.981Z,16.60
2022-09-26T11:11:50.607Z,16.90
2022-09-26T11:14:29.081Z,17.10
2022-09-26T11:17:23.545Z,17.30
2022-09-26T11:19:57.517Z,17.20
2022-09-26T11:22:31.660Z,16.90
2022-09-26T11:25:08.256Z,16.70
2022-09-26T11:27:43.480Z,16.60
2022-09-26T11:30:19.461Z,16.80
2022-09-26T11:32:56.302Z,17.10
2022-09-26T11:35:53.494Z,17.10
2022-09-26T11:38:39.102Z,17.00
2022-09-26T11:41:39.581Z,16.90
2022-09-26T11:44:41.159Z,16.80
2022-09-26T11:47:56.443Z,16.50
2022-09-26T11:50:51.386Z,16.30
2022-09-26T11:53:53.495Z,16.20
2022-09-26T11:56:43.159Z,15.90
2022-09-26T11:59:30.263Z,15.70
2022-09-26T12:02:16.392Z,15.50
2022-09-26T12:05:04.003Z,15.60
2022-09-26T12:07:39.827Z,15.50
2022-09-26T12:10:26.208Z,15.20
2022-09-26T12:13:17.140Z,14.60
2022-09-26T12:15:53.527Z,14.40
2022-09-26T12:18:32.714Z,14.30
2022-09-26T12:21:17.073Z,14.30
2022-09-26T12:23:51.107Z,14.30
2022-09-26T12:26:27.369Z,14.40
2022-09-26T12:29:10.257Z,14.50
2022-09-26T12:31:52.237Z,14.30
2022-09-26T12:34:32.335Z,14.30
2022-09-26T12:37:14.424Z,14.30
2022-09-26T12:40:09.424Z,14.40
2022-09-26T12:42:54.515Z,14.20
2022-09-26T12:45:52.994Z,13.70
2022-09-26T12:48:39.028Z,13.40
2022-09-26T12:51:23.174Z,13.30
2022-09-26T12:54:17.279Z,13.40
2022-09-26T12:56:51.125Z,13.40
2022-09-26T12:59:39.782Z,13.30
2022-09-26T13:02:33.146Z,13.40
2022-09-26T13:05:19.663Z,13.60
2022-09-26T13:07:56.091Z,13.60
2022-09-26T13:10:38.557Z,13.40
2022-09-26T13:13:39.642Z,13.40
2022-09-26T13:16:20.128Z,13.50
2022-09-26T13:19:08.539Z,13.80
2022-09-26T13:22:16.727Z,14.10
2022-09-26T13:24:52.199Z,14.40
2022-09-26T13:27:34.534Z,14.60
2022-09-26T13:30:17.192Z,14.80
2022-09-26T13:32:59.973Z,15.10
2022-09-26T13:35:33.331Z,15.40
2022-09-26T13:38:56.552Z,15.40
2022-09-26T13:42:01.779Z,15.70
2022-09-26T13:44:54.797Z,15.70
2022-09-26T13:56:23.338Z,15.80
2022-09-26T13:59:08.717Z,15.70
2022-09-26T14:01:49.822Z,15.60
2022-09-26T14:04:46.215Z,15.70
2022-09-26T14:07:39.879Z,15.50
2022-09-26T14:10:20.584Z,15.50
2022-09-26T14:13:26.284Z,15.50
2022-09-26T14:16:59.521Z,15.40
2022-09-26T14:19:38.313Z,15.50
2022-09-26T14:22:33.133Z,15.60
2022-09-26T14:25:05.415Z,15.80
2022-09-26T14:27:49.097Z,15.90
2022-09-26T14:30:28.499Z,15.90
2022-09-26T14:33:15.280Z,15.90
2022-09-26T14:35:44.029Z,16.10
2022-09-26T14:38:17.848Z,15.90
2022-09-26T14:45:18.038Z,15.90
2022-09-26T14:48:59.230Z,15.80
2022-09-26T14:51:30.567Z,15.70
2022-09-26T14:54:02.607Z,15.70
2022-09-26T14:56:40.976Z,15.60
2022-09-26T14:59:29.269Z,15.50
2022-09-26T15:02:36.845Z,15.50
2022-09-26T15:05:14.690Z,15.60
2022-09-26T15:08:07.374Z,15.80
2022-09-26T15:10:43.389Z,15.70
2022-09-26T15:13:24.295Z,15.50
2022-09-26T15:16:00.860Z,15.40
2022-09-26T15:18:40.309Z,15.40
2022-09-26T15:21:22.283Z,15.50
2022-09-26T15:23:52.591Z,15.40
2022-09-26T15:26:23.608Z,15.30
2022-09-26T15:28:54.190Z,15.40
2022-09-26T15:31:36.896Z,15.50
2022-09-26T15:34:37.268Z,15.60
2022-09-26T15:37:20.986Z,15.70
2022-09-26T15:39:50.201Z,15.70
2022-09-26T15:43:17.105Z,15.70
2022-09-26T15:46:02.604Z,15.40
2022-09-26T15:48:34.525Z,15.40
2022-09-26T15:51:07.189Z,15.30
2022-09-26T15:53:41.601Z,15.30
2022-09-26T15:56:13.622Z,15.30
2022-09-26T15:58:47.894Z,15.30
2022-09-26T16:01:18.853Z,15.30
2022-09-26T16:03:55.889Z,15.30
2022-09-26T16:06:31.315Z,15.30
2022-09-26T16:09:07.794Z,15.40
2022-09-26T16:11:47.721Z,15.40
2022-09-26T16:14:26.742Z,15.40
2022-09-26T16:20:53.410Z,15.40
2022-09-26T16:24:23.002Z,15.30
2022-09-26T16:30:46.959Z,15.10
2022-09-26T16:34:16.455Z,15.20
2022-09-26T16:37:15.160Z,15.20
2022-09-26T16:39:59.590Z,15.20
2022-09-26T16:42:48.524Z,15.20
2022-09-26T16:45:24.197Z,15.10
2022-09-26T16:48:12.256Z,15.20
2022-09-26T16:51:00.765Z,15.30
2022-09-26T16:53:47.323Z,15.40
2022-09-26T16:56:22.807Z,15.30
2022-09-26T16:58:57.500Z,15.30
2022-09-26T17:01:55.868Z,15.20
2022-09-26T17:04:37.089Z,15.20
2022-09-26T17:07:24.209Z,15.20
2022-09-26T17:10:04.491Z,15.40
2022-09-26T17:13:04.484Z,15.40
2022-09-26T17:15:40.450Z,15.50
2022-09-26T17:18:22.327Z,15.50
2022-09-26T17:21:06.391Z,15.30
2022-09-26T17:23:43.754Z,15.20
2022-09-26T17:26:35.485Z,15.30
2022-09-26T17:29:06.221Z,15.30
2022-09-26T17:31:39.286Z,15.20
2022-09-26T17:34:14.614Z,15.40
2022-09-26T17:39:51.050Z,15.30
2022-09-26T17:42:48.515Z,15.40
2022-09-26T17:57:35.341Z,15.10
2022-09-26T18:00:58.209Z,15.20
2022-09-26T18:07:24.427Z,15.30
2022-09-26T18:09:55.581Z,15.20
2022-09-26T18:12:26.629Z,15.30
2022-09-26T18:14:57.416Z,15.30
2022-09-26T18:17:29.171Z,15.30
2022-09-26T18:20:14.713Z,15.30
2022-09-26T18:25:48.483Z,15.30
2022-09-26T18:28:27.951Z,15.40
2022-09-26T18:31:00.910Z,15.40
2022-09-26T18:33:37.888Z,15.30
2022-09-26T18:36:07.560Z,15.10
2022-09-26T18:38:39.185Z,15.10
2022-09-26T18:41:19.515Z,15.00
2022-09-26T18:43:52.293Z,14.90
2022-09-26T18:46:22.986Z,14.80
2022-09-26T18:49:20.423Z,14.70
2022-09-26T18:52:04.218Z,14.70
2022-09-26T18:54:37.220Z,14.50
2022-09-26T18:57:24.742Z,14.30
2022-09-26T18:59:54.283Z,14.30
2022-09-26T19:02:26.779Z,14.30
2022-09-26T19:04:58.900Z,14.30
2022-09-26T19:07:27.879Z,14.20
2022-09-26T19:10:05.456Z,14.20
2022-09-26T19:12:41.968Z,14.30
2022-09-26T19:16:02.404Z,14.30
2022-09-26T19:18:24.942Z,14.40
2022-09-26T19:20:56.190Z,14.40
2022-09-26T19:23:26.081Z,14.50
2022-09-26T19:26:09.113Z,14.60
2022-09-26T19:28:41.705Z,14.70
2022-09-26T19:31:47.624Z,14.80
2022-09-26T19:34:16.792Z,15.00
2022-09-26T19:36:55.745Z,14.90
2022-09-26T19:40:38.254Z,14.80
2022-09-26T19:43:23.292Z,14.70
2022-09-26T19:46:04.118Z,14.50
2022-09-26T19:48:38.964Z,14.40
2022-09-26T19:51:30.016Z,14.30
2022-09-26T19:54:25.035Z,14.30
2022-09-26T19:56:59.641Z,14.50
2022-09-26T19:59:32.246Z,14.10
2022-09-26T20:02:02.510Z,14.00
2022-09-26T20:04:37.248Z,14.30
2022-09-26T20:07:19.348Z,14.40
2022-09-26T20:09:51.101Z,14.50
2022-09-26T20:12:52.735Z,14.60
2022-09-26T20:15:35.489Z,14.50
2022-09-26T20:18:14.835Z,14.50
2022-09-26T20:21:07.129Z,14.50
2022-09-26T20:23:37.097Z,14.60
2022-09-26T20:26:13.087Z,14.60
2022-09-26T20:28:41.920Z,14.60
2022-09-26T20:31:20.638Z,14.40
2022-09-26T20:34:00.103Z,14.30
2022-09-26T20:36:32.155Z,14.20
2022-09-26T20:39:19.801Z,14.20
2022-09-26T20:42:09.826Z,14.00
2022-09-26T20:44:55.474Z,13.80
2022-09-26T20:47:25.746Z,13.70
2022-09-26T20:50:06.543Z,13.60
2022-09-26T20:52:38.030Z,13.30
2022-09-26T20:55:14.845Z,13.10
2022-09-26T20:57:43.530Z,13.10
2022-09-26T21:00:16.285Z,13.10
2022-09-26T21:02:46.755Z,13.10
2022-09-26T21:05:24.584Z,13.20
2022-09-26T21:08:11.161Z,13.20
2022-09-26T21:10:41.866Z,13.30
2022-09-26T21:16:27.989Z,13.10
2022-09-26T21:20:02.416Z,13.10
2022-09-26T21:23:13.709Z,13.30
2022-09-26T21:32:32.802Z,13.50
2022-09-26T21:36:23.519Z,13.50
2022-09-26T21:39:59.848Z,13.60
2022-09-26T21:43:13.464Z,13.50
2022-09-26T21:46:44.843Z,13.50
2022-09-26T21:49:54.928Z,13.30
2022-09-26T21:52:56.962Z,13.20
2022-09-26T21:56:07.345Z,13.20
2022-09-26T21:59:00.385Z,13.00
2022-09-26T22:01:54.928Z,12.80
2022-09-26T22:04:31.907Z,12.80
2022-09-26T22:07:14.683Z,12.60
2022-09-26T22:09:52.681Z,12.70
2022-09-26T22:12:24.861Z,12.70
2022-09-26T22:14:53.281Z,12.70
2022-09-26T22:17:21.565Z,12.50
2022-09-26T22:20:00.487Z,12.60
2022-09-26T22:22:38.239Z,12.50
2022-09-26T22:25:10.989Z,12.60
2022-09-26T22:27:55.349Z,12.60
2022-09-26T22:30:23.561Z,12.50
2022-09-26T22:32:54.803Z,12.60
2022-09-26T22:35:29.432Z,12.40
2022-09-26T22:38:11.198Z,12.50
2022-09-26T22:40:39.505Z,12.60
2022-09-26T22:43:09.360Z,12.50
2022-09-26T22:45:39.462Z,12.40
2022-09-26T22:48:07.686Z,12.40
2022-09-26T22:50:35.770Z,12.60
2022-09-26T22:53:03.831Z,12.40
2022-09-26T22:55:31.927Z,12.40
2022-09-26T22:58:00.009Z,12.40
2022-09-26T23:00:29.628Z,12.40
2022-09-26T23:03:01.119Z,12.40
2022-09-26T23:05:29.259Z,12.30
2022-09-26T23:07:57.390Z,12.10
2022-09-26T23:10:25.544Z,12.10
2022-09-26T23:12:53.795Z,12.00
2022-09-26T23:15:22.008Z,12.00
2022-09-26T23:17:54.688Z,12.00
2022-09-26T23:20:25.692Z,12.00
2022-09-26T23:22:56.013Z,11.90
2022-09-26T23:25:24.343Z,11.80
2022-09-26T23:27:52.363Z,11.90
2022-09-26T23:30:20.456Z,11.90
2022-09-26T23:32:49.292Z,12.10
2022-09-26T23:35:21.146Z,12.00
2022-09-26T23:37:49.275Z,11.90
2022-09-26T23:40:22.319Z,12.00
2022-09-26T23:42:50.542Z,11.80
2022-09-26T23:45:18.696Z,11.90
2022-09-26T23:47:46.843Z,12.10
2022-09-26T23:50:14.924Z,12.00
2022-09-26T23:52:48.831Z,12.00
2022-09-26T23:55:17.587Z,11.90
2022-09-26T23:57:45.856Z,11.90
